Time;durP1;ratioP1;P1;durP2;ratioP2;P2;SDS_P1;SDS_P2;PMS_P1;PMS_P2;Temp;Humidity;BMP_temperature;BMP_pressure;BME280_temperature;BME280_humidity;BME280_pressure;Samples;Min_cycle;Max_cycle;Signal;HPM_P1;HPM_P2
2022/11/05 00:10:21;;;;;;;11.00;8.10;;;;;;;;;;5092401;28;20647;-80
2022/11/05 00:18:16;;;;;;;9.87;7.90;;;;;;;;;;5054639;28;20220;-79
2022/11/05 00:20:43;;;;;;;11.50;8.33;;;;;;;;;;5078795;28;20189;-78
2022/11/05 00:25:57;;;;;;;12.73;8.30;;;;;;;;;;5071125;28;22499;-80
2022/11/05 00:28:27;;;;;;;10.00;7.70;;;;;;;;;;5068314;28;20173;-81
2022/11/05 00:30:53;;;;;;;7.77;6.70;;;;;;;;;;5058857;28;20166;-77
2022/11/05 00:33:20;;;;;;;9.90;7.73;;;;;;;;;;5068041;28;20556;-79
2022/11/05 00:35:46;;;;;;;10.60;7.90;;;;;;;;;;5079206;28;20215;-79
2022/11/05 00:38:12;;;;;;;8.67;7.47;;;;;;;;;;5070582;28;20281;-78
2022/11/05 00:40:38;;;;;;;8.97;7.77;;;;;;;;;;5064486;28;20200;-78
2022/11/05 00:45:50;;;;;;;9.10;6.73;;;;;;;;;;5069046;28;20288;-79
2022/11/05 00:51:01;;;;;;;9.30;6.77;;;;;;;;;;5071093;28;20641;-79
2022/11/05 00:53:27;;;;;;;8.37;6.53;;;;;;;;;;5073449;28;20177;-78
2022/11/05 00:55:53;;;;;;;9.03;6.33;;;;;;;;;;5067872;28;20711;-78
2022/11/05 00:58:21;;;;;;;9.30;6.80;;;;;;;;;;5067279;28;20668;-78
2022/11/05 01:00:51;;;;;;;7.73;6.00;;;;;;;;;;5059131;28;20615;-78
2022/11/05 01:03:19;;;;;;;7.27;6.00;;;;;;;;;;5081745;28;20196;-78
2022/11/05 01:05:46;;;;;;;9.03;6.80;;;;;;;;;;5066772;28;20276;-78
2022/11/05 01:08:14;;;;;;;8.20;6.40;;;;;;;;;;5064971;28;20654;-79
2022/11/05 01:10:44;;;;;;;7.17;6.17;;;;;;;;;;5065297;28;20180;-78
2022/11/05 01:13:10;;;;;;;6.10;5.50;;;;;;;;;;5069071;28;20170;-78
2022/11/05 01:15:37;;;;;;;9.27;6.13;;;;;;;;;;5074308;28;20240;-78
2022/11/05 01:18:03;;;;;;;8.17;6.20;;;;;;;;;;5059284;28;20178;-78
2022/11/05 01:20:30;;;;;;;7.00;5.50;;;;;;;;;;5055669;28;20276;-78
2022/11/05 01:22:57;;;;;;;10.10;6.53;;;;;;;;;;5073522;28;20170;-78
2022/11/05 01:25:23;;;;;;;8.83;6.47;;;;;;;;;;5060148;28;20798;-78
2022/11/05 01:27:49;;;;;;;7.03;6.13;;;;;;;;;;5066327;28;20174;-78
2022/11/05 01:30:16;;;;;;;8.27;6.10;;;;;;;;;;5067315;28;20182;-79
2022/11/05 01:32:42;;;;;;;7.47;6.13;;;;;;;;;;5062775;28;20252;-79
2022/11/05 01:35:10;;;;;;;8.03;6.43;;;;;;;;;;5049891;28;20724;-77
2022/11/05 01:37:36;;;;;;;7.93;6.23;;;;;;;;;;5065301;28;20189;-78
2022/11/05 01:40:03;;;;;;;6.60;5.90;;;;;;;;;;5071616;28;20662;-78
2022/11/05 01:42:31;;;;;;;8.43;6.77;;;;;;;;;;5070937;28;20185;-78
2022/11/05 01:44:57;;;;;;;8.30;6.50;;;;;;;;;;5076740;28;20213;-78
2022/11/05 01:47:26;;;;;;;7.10;5.63;;;;;;;;;;5065425;28;20205;-78
2022/11/05 01:49:53;;;;;;;8.90;6.53;;;;;;;;;;5069620;28;20177;-79
2022/11/05 01:52:19;;;;;;;8.37;6.10;;;;;;;;;;5071704;28;20181;-80
2022/11/05 01:54:46;;;;;;;8.20;7.03;;;;;;;;;;5067171;28;20239;-78
2022/11/05 01:57:13;;;;;;;9.50;7.23;;;;;;;;;;5044753;28;20653;-78
2022/11/05 01:59:45;;;;;;;9.23;7.30;;;;;;;;;;5066851;28;20186;-78
2022/11/05 02:02:11;;;;;;;8.47;7.03;;;;;;;;;;5083326;28;20178;-79
2022/11/05 02:04:44;;;;;;;7.00;6.20;;;;;;;;;;5075729;28;20204;-78
2022/11/05 02:07:10;;;;;;;10.40;6.90;;;;;;;;;;5072610;28;20616;-78
2022/11/05 02:09:53;;;;;;;7.63;6.80;;;;;;;;;;5077438;28;20164;-79
2022/11/05 02:12:20;;;;;;;8.90;7.27;;;;;;;;;;5070642;28;20170;-78
2022/11/05 02:14:46;;;;;;;9.50;6.73;;;;;;;;;;5069217;28;20263;-80
2022/11/05 02:17:31;;;;;;;7.93;6.73;;;;;;;;;;5070233;28;20607;-80
2022/11/05 02:20:21;;;;;;;9.47;7.07;;;;;;;;;;5071646;28;20260;-78
2022/11/05 02:22:56;;;;;;;10.15;8.20;;;;;;;;;;5078569;28;20528;-78
2022/11/05 02:25:49;;;;;;;11.07;7.47;;;;;;;;;;5055035;28;20216;-78
2022/11/05 02:28:34;;;;;;;8.87;7.33;;;;;;;;;;5039127;28;20339;-79
2022/11/05 02:31:03;;;;;;;11.30;7.63;;;;;;;;;;5073765;28;20183;-78
2022/11/05 02:33:29;;;;;;;9.33;7.53;;;;;;;;;;5071004;28;20191;-79
2022/11/05 02:36:22;;;;;;;9.77;6.90;;;;;;;;;;5072033;28;20177;-79
2022/11/05 02:38:52;;;;;;;9.90;7.97;;;;;;;;;;5047641;28;20567;-78
2022/11/05 02:41:24;;;;;;;10.83;7.80;;;;;;;;;;5050246;28;20165;-78
2022/11/05 02:43:57;;;;;;;9.63;7.67;;;;;;;;;;5056285;28;20280;-78
2022/11/05 02:46:31;;;;;;;10.40;7.93;;;;;;;;;;5059768;28;20197;-78
2022/11/05 02:48:57;;;;;;;10.83;7.93;;;;;;;;;;5065411;28;20230;-78
2022/11/05 02:51:35;;;;;;;10.17;7.63;;;;;;;;;;5071604;28;20272;-78
2022/11/05 02:54:24;;;;;;;10.13;7.50;;;;;;;;;;5086431;28;20200;-78
2022/11/05 02:56:52;;;;;;;10.23;7.87;;;;;;;;;;5062459;28;20659;-78
2022/11/05 02:59:18;;;;;;;13.03;8.43;;;;;;;;;;5072066;28;20184;-79
2022/11/05 03:01:46;;;;;;;8.67;7.77;;;;;;;;;;5072887;28;20173;-80
2022/11/05 03:04:13;;;;;;;8.80;7.20;;;;;;;;;;5068231;28;20595;-78
2022/11/05 03:06:39;;;;;;;9.57;7.53;;;;;;;;;;5067146;28;20201;-78
2022/11/05 03:09:21;;;;;;;9.67;7.77;;;;;;;;;;5062612;28;20750;-78
2022/11/05 03:11:57;;;;;;;9.23;7.47;;;;;;;;;;5070380;28;20219;-78
2022/11/05 03:14:26;;;;;;;9.23;7.90;;;;;;;;;;5058959;28;20208;-79
2022/11/05 03:16:59;;;;;;;8.93;7.97;;;;;;;;;;5067148;28;20283;-79
2022/11/05 03:19:34;;;;;;;10.40;7.60;;;;;;;;;;5057627;28;20334;-78
2022/11/05 03:22:04;;;;;;;9.70;8.07;;;;;;;;;;5054772;28;20191;-78
2022/11/05 03:24:35;;;;;;;12.17;8.63;;;;;;;;;;5071196;28;20205;-78
2022/11/05 03:27:13;;;;;;;12.43;9.13;;;;;;;;;;5070870;28;20544;-80
2022/11/05 03:29:41;;;;;;;11.83;9.00;;;;;;;;;;5063888;28;20640;-78
2022/11/05 03:32:09;;;;;;;15.13;8.77;;;;;;;;;;5068979;28;20186;-80
2022/11/05 03:34:38;;;;;;;11.70;8.43;;;;;;;;;;5075788;28;20209;-78
2022/11/05 03:37:05;;;;;;;10.57;8.07;;;;;;;;;;5055701;28;20174;-78
2022/11/05 03:39:35;;;;;;;9.93;8.60;;;;;;;;;;5066593;28;20648;-78
2022/11/05 03:42:03;;;;;;;23.30;8.83;;;;;;;;;;5069970;28;20173;-78
2022/11/05 03:44:32;;;;;;;11.37;8.77;;;;;;;;;;5067158;28;20757;-79
2022/11/05 03:47:05;;;;;;;12.20;8.37;;;;;;;;;;5050554;28;20193;-78
2022/11/05 03:49:37;;;;;;;13.03;9.33;;;;;;;;;;5059004;28;20868;-78
2022/11/05 03:52:06;;;;;;;11.87;8.43;;;;;;;;;;5050158;28;20261;-77
2022/11/05 03:54:35;;;;;;;11.73;8.93;;;;;;;;;;5066787;28;20237;-77
2022/11/05 03:57:14;;;;;;;11.33;8.30;;;;;;;;;;5059092;28;20181;-77
2022/11/05 03:59:42;;;;;;;15.87;9.23;;;;;;;;;;5062397;28;20272;-79
2022/11/05 04:02:09;;;;;;;10.97;8.30;;;;;;;;;;5062516;28;20260;-79
2022/11/05 04:04:35;;;;;;;9.40;7.60;;;;;;;;;;5083096;28;20193;-77
2022/11/05 04:15:16;;;;;;;11.60;8.80;;;;;;;;;;5069870;28;20224;-77
2022/11/05 04:17:42;;;;;;;10.10;8.97;;;;;;;;;;5083569;28;20222;-78
2022/11/05 04:25:45;;;;;;;16.73;10.83;;;;;;;;;;5064598;28;20201;-80
2022/11/05 04:28:11;;;;;;;17.40;12.03;;;;;;;;;;5057154;28;20229;-78
2022/11/05 04:30:38;;;;;;;15.07;11.03;;;;;;;;;;5066825;28;20264;-78
2022/11/05 04:33:06;;;;;;;20.93;12.73;;;;;;;;;;5065490;28;20703;-77
2022/11/05 04:35:34;;;;;;;21.43;12.03;;;;;;;;;;5060907;28;20201;-78
2022/11/05 04:38:00;;;;;;;17.40;11.60;;;;;;;;;;5061158;28;20201;-78
2022/11/05 04:40:27;;;;;;;15.80;11.10;;;;;;;;;;5087369;28;20174;-77
2022/11/05 04:42:54;;;;;;;14.60;10.33;;;;;;;;;;5049767;28;20191;-78
2022/11/05 04:45:22;;;;;;;18.73;11.60;;;;;;;;;;5050007;28;20262;-77
2022/11/05 04:47:48;;;;;;;16.27;12.77;;;;;;;;;;5043357;28;20475;-79
2022/11/05 04:50:14;;;;;;;17.07;11.43;;;;;;;;;;5056983;28;20181;-79
2022/11/05 04:52:40;;;;;;;15.30;11.53;;;;;;;;;;5059986;28;20181;-78
2022/11/05 04:55:07;;;;;;;15.67;11.23;;;;;;;;;;5046482;28;20296;-77
2022/11/05 04:57:33;;;;;;;16.77;11.60;;;;;;;;;;5059927;28;20596;-78
2022/11/05 04:59:59;;;;;;;19.83;12.37;;;;;;;;;;5061523;28;20234;-77
2022/11/05 05:02:25;;;;;;;17.43;11.73;;;;;;;;;;5064568;28;20192;-77
2022/11/05 05:04:52;;;;;;;16.20;11.87;;;;;;;;;;5064764;28;20200;-79
2022/11/05 05:07:18;;;;;;;18.93;11.90;;;;;;;;;;5076937;28;20690;-78
2022/11/05 05:09:44;;;;;;;17.73;11.73;;;;;;;;;;5064973;28;20674;-78
2022/11/05 05:12:10;;;;;;;15.57;11.27;;;;;;;;;;5066335;28;20181;-78
2022/11/05 05:14:36;;;;;;;18.67;11.40;;;;;;;;;;5070141;28;20762;-78
2022/11/05 05:17:03;;;;;;;16.30;10.60;;;;;;;;;;5067282;28;20226;-78
2022/11/05 05:21:37;;;;;;;17.30;12.23;;;;;;;;;;5055122;28;20411;-80
2022/11/05 05:22:15;;;;;;;16.90;10.67;;;;;;;;;;5056982;28;20652;-78
2022/11/05 05:24:41;;;;;;;14.70;10.53;;;;;;;;;;5072470;28;20208;-78
2022/11/05 05:27:08;;;;;;;14.97;10.73;;;;;;;;;;5072790;28;20189;-78
2022/11/05 05:29:34;;;;;;;13.20;9.70;;;;;;;;;;5072336;28;20190;-77
2022/11/05 05:32:00;;;;;;;13.27;8.90;;;;;;;;;;5075592;28;20245;-77
2022/11/05 05:34:26;;;;;;;14.40;9.43;;;;;;;;;;5081370;28;20719;-78
2022/11/05 05:36:52;;;;;;;13.33;9.20;;;;;;;;;;5071239;28;20268;-78
2022/11/05 05:39:18;;;;;;;12.77;8.37;;;;;;;;;;5078175;28;20180;-78
2022/11/05 05:41:45;;;;;;;14.43;8.73;;;;;;;;;;5083588;28;20172;-77
2022/11/05 05:44:11;;;;;;;13.13;8.90;;;;;;;;;;5084802;28;20196;-78
2022/11/05 05:46:37;;;;;;;13.33;8.20;;;;;;;;;;5071884;28;20209;-77
2022/11/05 05:49:03;;;;;;;9.57;6.50;;;;;;;;;;5073684;28;20206;-79
2022/11/05 05:51:29;;;;;;;10.60;6.20;;;;;;;;;;5072904;28;20161;-78
2022/11/05 05:53:55;;;;;;;8.20;5.83;;;;;;;;;;5057985;28;20231;-78
2022/11/05 05:56:21;;;;;;;8.40;6.40;;;;;;;;;;5073378;28;20705;-78
2022/11/05 05:58:48;;;;;;;8.87;5.80;;;;;;;;;;5073940;28;20185;-77
2022/11/05 06:01:15;;;;;;;7.50;5.60;;;;;;;;;;5073435;28;20260;-77
2022/11/05 06:03:42;;;;;;;6.57;5.03;;;;;;;;;;5073472;28;20229;-78
2022/11/05 06:06:09;;;;;;;7.40;4.90;;;;;;;;;;5074745;28;20288;-79
2022/11/05 06:08:35;;;;;;;7.13;4.80;;;;;;;;;;5079971;28;20185;-79
2022/11/05 06:11:02;;;;;;;8.60;5.63;;;;;;;;;;5073543;28;20177;-78
2022/11/05 06:13:29;;;;;;;6.20;5.40;;;;;;;;;;5070872;28;20410;-79
2022/11/05 06:16:06;;;;;;;6.63;5.00;;;;;;;;;;5055392;28;20184;-78
2022/11/05 06:18:32;;;;;;;6.67;4.63;;;;;;;;;;5072509;28;20185;-78
2022/11/05 06:21:06;;;;;;;6.37;5.07;;;;;;;;;;5072752;28;21218;-77
2022/11/05 06:23:32;;;;;;;5.90;4.85;;;;;;;;;;5056216;28;20441;-79
2022/11/05 06:26:00;;;;;;;6.60;4.80;;;;;;;;;;5067648;28;20262;-78
2022/11/05 06:28:26;;;;;;;6.77;4.30;;;;;;;;;;5069502;28;20543;-78
2022/11/05 06:30:52;;;;;;;5.87;3.80;;;;;;;;;;5068925;28;20710;-78
2022/11/05 06:33:18;;;;;;;5.33;4.47;;;;;;;;;;5068914;28;20653;-78
2022/11/05 06:35:44;;;;;;;5.23;4.20;;;;;;;;;;5072163;28;20185;-78
2022/11/05 06:38:10;;;;;;;4.90;4.13;;;;;;;;;;5069223;28;20185;-78
2022/11/05 06:40:37;;;;;;;5.37;3.90;;;;;;;;;;5066782;28;20209;-79
2022/11/05 06:43:03;;;;;;;5.23;3.90;;;;;;;;;;5068421;28;20177;-78
2022/11/05 06:45:29;;;;;;;8.20;4.70;;;;;;;;;;5069485;28;20281;-79
2022/11/05 06:47:56;;;;;;;6.23;4.30;;;;;;;;;;5069651;28;20173;-78
2022/11/05 06:50:22;;;;;;;7.10;4.10;;;;;;;;;;5069311;28;20231;-79
2022/11/05 06:52:55;;;;;;;4.43;3.90;;;;;;;;;;5069428;28;20186;-78
2022/11/05 06:55:21;;;;;;;5.03;3.80;;;;;;;;;;5068180;28;20211;-78
2022/11/05 06:57:47;;;;;;;6.70;3.97;;;;;;;;;;5053825;28;20177;-78
2022/11/05 07:00:14;;;;;;;6.83;4.03;;;;;;;;;;5060287;28;20181;-78
2022/11/05 07:02:40;;;;;;;4.47;3.50;;;;;;;;;;5065695;28;20188;-78
2022/11/05 07:05:09;;;;;;;5.43;3.83;;;;;;;;;;5068916;28;20271;-78
2022/11/05 07:07:36;;;;;;;5.57;4.10;;;;;;;;;;5070801;28;20180;-78
2022/11/05 07:10:03;;;;;;;5.93;3.93;;;;;;;;;;5089278;28;20176;-78
2022/11/05 07:12:29;;;;;;;5.87;4.37;;;;;;;;;;5089859;28;20870;-78
2022/11/05 07:14:55;;;;;;;4.97;4.30;;;;;;;;;;5069518;28;20201;-78
2022/11/05 07:17:21;;;;;;;5.50;4.27;;;;;;;;;;5068299;28;20189;-78
2022/11/05 07:19:48;;;;;;;5.70;4.20;;;;;;;;;;5068854;28;20252;-78
2022/11/05 07:22:14;;;;;;;6.20;4.23;;;;;;;;;;5068107;28;20234;-78
2022/11/05 07:24:41;;;;;;;5.30;4.10;;;;;;;;;;5069432;28;20197;-78
2022/11/05 07:27:07;;;;;;;6.63;4.30;;;;;;;;;;5068576;28;20205;-78
2022/11/05 07:29:33;;;;;;;5.33;3.93;;;;;;;;;;5069873;28;20226;-78
2022/11/05 07:31:59;;;;;;;4.93;3.80;;;;;;;;;;5069109;28;20181;-78
2022/11/05 07:34:25;;;;;;;6.07;4.10;;;;;;;;;;5068128;28;20206;-78
2022/11/05 07:36:52;;;;;;;5.63;4.20;;;;;;;;;;5068270;28;20181;-78
2022/11/05 07:39:18;;;;;;;6.53;4.80;;;;;;;;;;5069657;28;20783;-78
2022/11/05 07:41:44;;;;;;;5.90;4.60;;;;;;;;;;5067036;28;20546;-78
2022/11/05 07:44:13;;;;;;;7.70;4.90;;;;;;;;;;5074696;28;20205;-78
2022/11/05 07:46:40;;;;;;;6.70;4.50;;;;;;;;;;5068576;28;20197;-78
2022/11/05 07:49:06;;;;;;;6.20;4.20;;;;;;;;;;5068025;28;20664;-78
2022/11/05 07:51:32;;;;;;;5.73;4.47;;;;;;;;;;5068753;28;20165;-78
2022/11/05 07:53:59;;;;;;;5.83;4.60;;;;;;;;;;5051125;28;20236;-78
2022/11/05 07:56:25;;;;;;;6.27;4.20;;;;;;;;;;5049869;28;20185;-78
2022/11/05 07:58:51;;;;;;;7.07;5.00;;;;;;;;;;5054010;28;20181;-78
2022/11/05 08:01:17;;;;;;;5.83;4.50;;;;;;;;;;5067040;28;20199;-78
2022/11/05 08:03:44;;;;;;;5.40;4.63;;;;;;;;;;5082295;28;20258;-78
2022/11/05 08:06:10;;;;;;;7.50;4.63;;;;;;;;;;5075522;28;20208;-78
2022/11/05 08:08:36;;;;;;;5.37;4.30;;;;;;;;;;5062116;28;20177;-78
2022/11/05 08:11:03;;;;;;;5.30;4.17;;;;;;;;;;5066321;28;20173;-78
2022/11/05 08:13:29;;;;;;;8.20;4.93;;;;;;;;;;5067919;28;20177;-79
2022/11/05 08:15:56;;;;;;;6.73;5.20;;;;;;;;;;5076143;28;20165;-78
2022/11/05 08:18:30;;;;;;;7.57;4.77;;;;;;;;;;5074357;28;20285;-78
2022/11/05 08:20:56;;;;;;;5.77;4.70;;;;;;;;;;5097732;28;20184;-78
2022/11/05 08:23:23;;;;;;;5.50;4.53;;;;;;;;;;5065653;28;20276;-78
2022/11/05 08:25:49;;;;;;;5.97;4.80;;;;;;;;;;5071994;28;20280;-77
2022/11/05 08:28:15;;;;;;;6.40;5.03;;;;;;;;;;5065622;28;20181;-78
2022/11/05 08:30:42;;;;;;;7.77;5.00;;;;;;;;;;5070398;28;20232;-78
2022/11/05 08:33:09;;;;;;;6.07;5.17;;;;;;;;;;5072021;28;20216;-78
2022/11/05 08:35:36;;;;;;;9.70;5.60;;;;;;;;;;5071459;28;20228;-79
2022/11/05 08:38:04;;;;;;;8.60;5.70;;;;;;;;;;5070598;28;20712;-79
2022/11/05 08:40:31;;;;;;;9.70;6.80;;;;;;;;;;5072031;28;20208;-79
2022/11/05 08:42:57;;;;;;;8.97;6.40;;;;;;;;;;5075336;28;20184;-79
2022/11/05 08:45:24;;;;;;;8.20;6.17;;;;;;;;;;5077411;28;20203;-79
2022/11/05 08:47:50;;;;;;;7.30;5.70;;;;;;;;;;5080443;28;20459;-79
2022/11/05 08:50:16;;;;;;;9.87;6.27;;;;;;;;;;5089538;28;20173;-79
2022/11/05 08:52:43;;;;;;;7.70;6.53;;;;;;;;;;5072196;28;20692;-79
2022/11/05 08:55:09;;;;;;;8.77;6.00;;;;;;;;;;5073897;28;20212;-79
2022/11/05 08:57:35;;;;;;;8.30;5.90;;;;;;;;;;5072070;28;20189;-79
2022/11/05 09:00:01;;;;;;;6.83;5.87;;;;;;;;;;5071210;28;20234;-79
2022/11/05 09:02:27;;;;;;;7.63;5.97;;;;;;;;;;5082455;28;20184;-79
2022/11/05 09:04:53;;;;;;;8.80;6.23;;;;;;;;;;5081530;28;20205;-79
2022/11/05 09:07:21;;;;;;;9.53;6.70;;;;;;;;;;5075823;28;20174;-79
2022/11/05 09:09:47;;;;;;;8.50;6.57;;;;;;;;;;5065609;28;20184;-79
2022/11/05 09:12:14;;;;;;;8.63;7.07;;;;;;;;;;5076606;28;20196;-79
2022/11/05 09:14:40;;;;;;;9.87;6.60;;;;;;;;;;5052300;28;20265;-79
2022/11/05 09:17:13;;;;;;;9.10;6.60;;;;;;;;;;5054779;28;20219;-79
2022/11/05 09:19:39;;;;;;;11.57;7.80;;;;;;;;;;5053479;28;20188;-79
2022/11/05 09:22:05;;;;;;;12.90;7.93;;;;;;;;;;5065676;28;20181;-79
2022/11/05 09:24:31;;;;;;;8.67;6.70;;;;;;;;;;5067294;28;20221;-79
2022/11/05 09:26:58;;;;;;;9.77;7.67;;;;;;;;;;5070003;28;20200;-79
2022/11/05 09:29:24;;;;;;;10.23;7.97;;;;;;;;;;5068711;28;22514;-79
2022/11/05 09:31:50;;;;;;;10.67;7.73;;;;;;;;;;5066640;28;20177;-78
2022/11/05 09:34:16;;;;;;;8.90;7.07;;;;;;;;;;5065586;28;20208;-78
2022/11/05 09:36:42;;;;;;;11.60;7.57;;;;;;;;;;5070360;28;20231;-78
2022/11/05 09:39:08;;;;;;;10.47;7.23;;;;;;;;;;5076461;28;20190;-79
2022/11/05 09:41:36;;;;;;;10.77;7.67;;;;;;;;;;5069755;28;20265;-78
2022/11/05 09:44:04;;;;;;;11.23;7.53;;;;;;;;;;5065512;28;20509;-78
2022/11/05 09:46:54;;;;;;;10.60;7.57;;;;;;;;;;5068563;28;20196;-79
2022/11/05 09:49:23;;;;;;;8.67;7.10;;;;;;;;;;5064955;28;20292;-78
2022/11/05 09:51:51;;;;;;;14.30;6.87;;;;;;;;;;5079544;28;20174;-79
2022/11/05 09:54:19;;;;;;;11.33;6.77;;;;;;;;;;5068394;28;20233;-78
2022/11/05 09:56:46;;;;;;;8.23;6.63;;;;;;;;;;5061683;28;20193;-79
2022/11/05 09:59:12;;;;;;;12.83;7.53;;;;;;;;;;5052062;28;20181;-78
2022/11/05 10:01:39;;;;;;;9.53;7.33;;;;;;;;;;5028978;28;20186;-79
2022/11/05 10:04:08;;;;;;;10.47;7.97;;;;;;;;;;5056020;28;20473;-79
2022/11/05 10:06:34;;;;;;;11.53;8.30;;;;;;;;;;5074110;28;20203;-80
2022/11/05 10:09:21;;;;;;;11.53;8.10;;;;;;;;;;5057203;28;20235;-80
2022/11/05 10:11:56;;;;;;;9.03;7.10;;;;;;;;;;5038568;28;20185;-80
2022/11/05 10:14:36;;;;;;;11.30;7.50;;;;;;;;;;5085252;28;20209;-79
2022/11/05 10:17:23;;;;;;;9.50;7.10;;;;;;;;;;5071614;28;20615;-81
2022/11/05 10:19:51;;;;;;;11.60;7.93;;;;;;;;;;5072817;28;20181;-81
2022/11/05 10:22:18;;;;;;;11.77;8.10;;;;;;;;;;5071749;28;20193;-80
2022/11/05 10:24:46;;;;;;;10.77;7.70;;;;;;;;;;5057451;28;20197;-79
2022/11/05 10:27:29;;;;;;;12.70;7.63;;;;;;;;;;5078263;28;20197;-79
2022/11/05 10:29:56;;;;;;;12.00;7.83;;;;;;;;;;5071748;28;20184;-80
2022/11/05 10:32:22;;;;;;;14.83;8.90;;;;;;;;;;5074737;28;20193;-77
2022/11/05 10:34:49;;;;;;;11.73;7.87;;;;;;;;;;5082038;28;20213;-80
2022/11/05 10:37:15;;;;;;;10.70;7.73;;;;;;;;;;5069724;28;20213;-83
2022/11/05 10:39:41;;;;;;;12.50;7.70;;;;;;;;;;5053197;28;20189;-80
2022/11/05 10:42:26;;;;;;;10.70;8.30;;;;;;;;;;5080227;28;20173;-80
2022/11/05 10:44:59;;;;;;;11.03;7.53;;;;;;;;;;5068828;28;20335;-79
2022/11/05 10:47:43;;;;;;;14.37;8.70;;;;;;;;;;5055822;28;20162;-79
2022/11/05 10:50:11;;;;;;;10.90;8.17;;;;;;;;;;5066530;28;20181;-81
2022/11/05 10:52:39;;;;;;;10.00;7.77;;;;;;;;;;5076203;28;20169;-81
2022/11/05 10:55:16;;;;;;;13.23;7.97;;;;;;;;;;5067358;28;20288;-80
2022/11/05 10:57:42;;;;;;;9.77;6.80;;;;;;;;;;5054784;28;20185;-81
2022/11/05 11:00:18;;;;;;;11.23;7.97;;;;;;;;;;5040921;28;20173;-79
2022/11/05 11:02:49;;;;;;;11.63;7.07;;;;;;;;;;5077610;28;20238;-80
2022/11/05 11:05:31;;;;;;;11.73;8.73;;;;;;;;;;5056310;28;20228;-82
2022/11/05 11:08:01;;;;;;;9.50;7.03;;;;;;;;;;5077596;28;20179;-80
2022/11/05 11:10:29;;;;;;;10.53;7.50;;;;;;;;;;5069439;28;20675;-80
2022/11/05 11:12:56;;;;;;;11.13;7.20;;;;;;;;;;5069221;28;20178;-81
2022/11/05 11:15:26;;;;;;;10.13;7.10;;;;;;;;;;5053038;28;20220;-80
2022/11/05 11:17:53;;;;;;;9.83;6.73;;;;;;;;;;5069412;28;20200;-79
2022/11/05 11:20:27;;;;;;;14.33;7.20;;;;;;;;;;5072448;28;20215;-79
2022/11/05 11:23:13;;;;;;;11.13;8.10;;;;;;;;;;5061878;28;20205;-79
2022/11/05 11:25:47;;;;;;;14.43;8.10;;;;;;;;;;5049683;28;20275;-82
2022/11/05 11:28:17;;;;;;;12.40;7.40;;;;;;;;;;5069900;28;20185;-79
2022/11/05 11:30:48;;;;;;;10.10;7.23;;;;;;;;;;5054890;28;20189;-81
2022/11/05 11:33:17;;;;;;;9.60;6.97;;;;;;;;;;5060340;28;20189;-80
2022/11/05 11:35:45;;;;;;;11.77;7.27;;;;;;;;;;5073742;28;20180;-80
2022/11/05 11:38:14;;;;;;;10.23;7.90;;;;;;;;;;5056124;28;20185;-79
2022/11/05 11:40:40;;;;;;;9.00;6.83;;;;;;;;;;5077678;28;20208;-79
2022/11/05 11:43:14;;;;;;;10.37;6.83;;;;;;;;;;5047547;28;20236;-80
2022/11/05 11:45:51;;;;;;;10.50;6.23;;;;;;;;;;5071990;28;20227;-79
2022/11/05 11:48:21;;;;;;;10.13;8.07;;;;;;;;;;5074081;28;20711;-79
2022/11/05 11:50:48;;;;;;;9.13;7.17;;;;;;;;;;5057976;28;20218;-79
2022/11/05 11:53:19;;;;;;;13.33;7.93;;;;;;;;;;5067899;28;20595;-79
2022/11/05 11:55:55;;;;;;;10.60;7.33;;;;;;;;;;5075484;28;20696;-79
2022/11/05 11:58:22;;;;;;;10.57;7.00;;;;;;;;;;5060833;28;20193;-80
2022/11/05 12:00:51;;;;;;;10.27;6.80;;;;;;;;;;5068689;28;20228;-81
2022/11/05 12:03:24;;;;;;;8.70;6.50;;;;;;;;;;5068781;28;20185;-81
2022/11/05 12:05:54;;;;;;;10.57;6.53;;;;;;;;;;5080746;28;20207;-80
2022/11/05 12:08:39;;;;;;;9.27;5.57;;;;;;;;;;5096196;28;20663;-80
2022/11/05 12:11:10;;;;;;;8.53;5.53;;;;;;;;;;5088720;28;20691;-80
2022/11/05 12:13:43;;;;;;;7.73;5.60;;;;;;;;;;5061742;28;20224;-80
2022/11/05 12:16:09;;;;;;;9.40;5.63;;;;;;;;;;5064723;28;20182;-80
2022/11/05 12:18:54;;;;;;;9.07;5.63;;;;;;;;;;5073181;28;20185;-81
2022/11/05 12:21:39;;;;;;;8.73;5.40;;;;;;;;;;5067072;28;20397;-81
2022/11/05 12:24:05;;;;;;;8.53;4.77;;;;;;;;;;5067581;28;20208;-79
2022/11/05 12:26:34;;;;;;;7.63;4.90;;;;;;;;;;5068955;28;20216;-77
2022/11/05 12:29:19;;;;;;;8.73;4.83;;;;;;;;;;5059903;28;20575;-79
2022/11/05 12:31:45;;;;;;;6.90;4.60;;;;;;;;;;5060254;28;20185;-79
2022/11/05 12:34:12;;;;;;;6.57;4.40;;;;;;;;;;5067465;28;20205;-79
2022/11/05 12:36:58;;;;;;;6.87;4.80;;;;;;;;;;5066132;28;20196;-79
2022/11/05 12:39:30;;;;;;;8.07;4.60;;;;;;;;;;5078599;28;20177;-79
2022/11/05 12:42:01;;;;;;;7.33;4.60;;;;;;;;;;5073024;28;20268;-78
2022/11/05 12:44:33;;;;;;;6.73;4.03;;;;;;;;;;5062719;28;20642;-78
2022/11/05 12:47:32;;;;;;;6.63;4.00;;;;;;;;;;5060102;28;20318;-80
2022/11/05 12:50:20;;;;;;;7.00;3.90;;;;;;;;;;5051438;28;20201;-80
2022/11/05 12:52:57;;;;;;;7.27;4.20;;;;;;;;;;5064072;28;20170;-79
2022/11/05 12:55:24;;;;;;;7.03;3.73;;;;;;;;;;5064064;28;20699;-79
2022/11/05 12:57:52;;;;;;;5.90;3.97;;;;;;;;;;5067947;28;20181;-79
2022/11/05 13:00:20;;;;;;;6.47;4.03;;;;;;;;;;5062934;28;20178;-79
2022/11/05 13:03:05;;;;;;;5.93;3.80;;;;;;;;;;5067843;28;20181;-82
2022/11/05 13:05:37;;;;;;;6.17;4.00;;;;;;;;;;5061871;28;20804;-80
2022/11/05 13:08:03;;;;;;;5.93;3.80;;;;;;;;;;5070379;28;20180;-81
2022/11/05 13:10:49;;;;;;;7.40;4.40;;;;;;;;;;5073456;28;20196;-83
2022/11/05 13:13:17;;;;;;;6.50;3.80;;;;;;;;;;5078982;28;20212;-79
2022/11/05 13:16:10;;;;;;;8.07;3.97;;;;;;;;;;5054006;28;20172;-84
2022/11/05 13:19:06;;;;;;;6.40;4.67;;;;;;;;;;5055766;28;20926;-77
2022/11/05 13:21:34;;;;;;;12.87;4.87;;;;;;;;;;5094341;28;20687;-79
2022/11/05 13:24:06;;;;;;;7.03;4.67;;;;;;;;;;5065759;28;20349;-80
2022/11/05 13:26:37;;;;;;;8.63;4.80;;;;;;;;;;5077704;28;20207;-82
2022/11/05 13:29:09;;;;;;;6.53;4.13;;;;;;;;;;5064224;28;20267;-81
2022/11/05 13:31:40;;;;;;;7.60;4.60;;;;;;;;;;5077395;28;20185;-79
2022/11/05 13:34:11;;;;;;;8.30;4.33;;;;;;;;;;5067829;28;20890;-80
2022/11/05 13:39:36;;;;;;;6.13;4.73;;;;;;;;;;5075611;28;20181;-82
2022/11/05 13:42:31;;;;;;;6.87;4.70;;;;;;;;;;5079589;28;20634;-81
2022/11/05 13:45:03;;;;;;;7.80;4.67;;;;;;;;;;5069526;28;20283;-78
2022/11/05 13:47:38;;;;;;;8.23;4.83;;;;;;;;;;5069999;28;20208;-78
2022/11/05 13:50:18;;;;;;;7.47;4.60;;;;;;;;;;5073184;28;20187;-79
2022/11/05 13:52:53;;;;;;;8.37;5.43;;;;;;;;;;5068092;28;20189;-80
2022/11/05 13:55:27;;;;;;;8.97;4.60;;;;;;;;;;5064854;28;20247;-80
2022/11/05 13:58:20;;;;;;;7.63;4.77;;;;;;;;;;5068005;28;20263;-79
2022/11/05 14:00:47;;;;;;;7.80;4.30;;;;;;;;;;5072190;28;20697;-78
2022/11/05 14:03:17;;;;;;;6.93;4.13;;;;;;;;;;5076631;28;20197;-78
2022/11/05 14:05:49;;;;;;;6.20;3.50;;;;;;;;;;5074823;28;20201;-81
2022/11/05 14:08:20;;;;;;;4.77;2.80;;;;;;;;;;5064472;28;20175;-79
2022/11/05 14:11:01;;;;;;;2.83;2.40;;;;;;;;;;5060485;28;20189;-80
2022/11/05 14:13:33;;;;;;;3.70;2.53;;;;;;;;;;5067966;28;20181;-80
2022/11/05 14:16:18;;;;;;;6.97;2.90;;;;;;;;;;5077147;28;20193;-81
2022/11/05 14:18:47;;;;;;;5.53;3.00;;;;;;;;;;5034945;28;20560;-82
2022/11/05 14:21:26;;;;;;;2.83;2.30;;;;;;;;;;5085625;28;20319;-86
2022/11/05 14:23:53;;;;;;;3.73;2.30;;;;;;;;;;5060465;28;20230;-77
2022/11/05 14:26:21;;;;;;;3.63;2.17;;;;;;;;;;5057421;28;20687;-78
2022/11/05 14:28:48;;;;;;;2.83;1.70;;;;;;;;;;5057429;28;20181;-77
2022/11/05 14:31:17;;;;;;;2.83;1.80;;;;;;;;;;5068472;28;20173;-80
2022/11/05 14:33:54;;;;;;;3.30;1.80;;;;;;;;;;5062310;28;20209;-81
2022/11/05 14:36:21;;;;;;;2.77;1.70;;;;;;;;;;5061565;28;20586;-81
2022/11/05 14:38:51;;;;;;;2.63;1.83;;;;;;;;;;5066921;28;20185;-81
2022/11/05 14:41:18;;;;;;;2.33;1.63;;;;;;;;;;5066148;28;20175;-80
2022/11/05 14:43:47;;;;;;;3.30;1.60;;;;;;;;;;5069259;28;20242;-79
2022/11/05 14:46:13;;;;;;;3.30;2.03;;;;;;;;;;5059058;28;20228;-79
2022/11/05 14:48:39;;;;;;;3.63;2.50;;;;;;;;;;5067708;28;20198;-79
2022/11/05 14:51:24;;;;;;;4.17;2.17;;;;;;;;;;5061883;28;20284;-80
2022/11/05 14:53:57;;;;;;;3.33;3.00;;;;;;;;;;5057315;28;20956;-81
2022/11/05 14:56:23;;;;;;;2.90;2.50;;;;;;;;;;5072591;28;20278;-80
2022/11/05 14:59:10;;;;;;;3.60;2.83;;;;;;;;;;5064605;28;20466;-79
2022/11/05 15:01:42;;;;;;;2.90;2.60;;;;;;;;;;5071769;28;20184;-79
2022/11/05 15:04:16;;;;;;;3.33;2.10;;;;;;;;;;5067786;28;20209;-81
2022/11/05 15:07:01;;;;;;;3.10;2.03;;;;;;;;;;5066502;28;20589;-81
2022/11/05 15:09:32;;;;;;;3.23;2.00;;;;;;;;;;5060913;28;20246;-81
2022/11/05 15:12:08;;;;;;;4.20;2.00;;;;;;;;;;5038747;28;20309;-81
2022/11/05 15:14:54;;;;;;;3.03;1.90;;;;;;;;;;5069410;28;20204;-81
2022/11/05 15:17:28;;;;;;;3.57;1.97;;;;;;;;;;5052775;28;20182;-80
2022/11/05 15:20:09;;;;;;;4.90;3.20;;;;;;;;;;5067524;28;20181;-80
2022/11/05 15:22:37;;;;;;;7.03;3.67;;;;;;;;;;5067795;28;20543;-80
2022/11/05 15:25:04;;;;;;;10.30;4.63;;;;;;;;;;5080001;28;20293;-81
2022/11/05 15:27:44;;;;;;;7.67;5.20;;;;;;;;;;5062803;28;20205;-81
2022/11/05 15:30:15;;;;;;;8.43;5.47;;;;;;;;;;5064100;28;20185;-81
2022/11/05 15:32:41;;;;;;;7.83;5.20;;;;;;;;;;5061374;28;20189;-81
2022/11/05 15:35:25;;;;;;;6.07;5.07;;;;;;;;;;5050121;28;20221;-80